sensor_id;sensor_type;location;lat;lon;timestamp;P1;durP1;ratioP1;P2;durP2;ratioP2
58091;SDS011;43896;48.178;11.578;2022-10-17T00:01:35;5.45;;;2.60;;
58091;SDS011;43896;48.178;11.578;2022-10-17T00:04:00;5.75;;;2.72;;
58091;SDS011;43896;48.178;11.578;2022-10-17T00:06:25;4.88;;;2.63;;
58091;SDS011;43896;48.178;11.578;2022-10-17T00:08:51;7.53;;;2.80;;
58091;SDS011;43896;48.178;11.578;2022-10-17T00:11:17;5.88;;;2.40;;
58091;SDS011;43896;48.178;11.578;2022-10-17T00:13:45;5.57;;;2.88;;
58091;SDS011;43896;48.178;11.578;2022-10-17T00:16:12;5.75;;;2.80;;
58091;SDS011;43896;48.178;11.578;2022-10-17T00:18:38;5.72;;;2.63;;
58091;SDS011;43896;48.178;11.578;2022-10-17T00:21:03;5.78;;;2.70;;
58091;SDS011;43896;48.178;11.578;2022-10-17T00:23:29;5.20;;;2.72;;
58091;SDS011;43896;48.178;11.578;2022-10-17T00:25:58;5.78;;;2.72;;
58091;SDS011;43896;48.178;11.578;2022-10-17T00:28:25;4.70;;;2.70;;
58091;SDS011;43896;48.178;11.578;2022-10-17T00:30:58;6.30;;;2.53;;
58091;SDS011;43896;48.178;11.578;2022-10-17T00:33:25;6.55;;;2.58;;
58091;SDS011;43896;48.178;11.578;2022-10-17T00:36:00;7.13;;;2.97;;
58091;SDS011;43896;48.178;11.578;2022-10-17T00:38:27;6.18;;;2.70;;
58091;SDS011;43896;48.178;11.578;2022-10-17T00:40:52;6.05;;;2.97;;
58091;SDS011;43896;48.178;11.578;2022-10-17T00:43:18;5.50;;;2.90;;
58091;SDS011;43896;48.178;11.578;2022-10-17T00:45:43;5.78;;;2.70;;
58091;SDS011;43896;48.178;11.578;2022-10-17T00:48:09;5.97;;;2.92;;
58091;SDS011;43896;48.178;11.578;2022-10-17T00:50:36;4.57;;;2.60;;
58091;SDS011;43896;48.178;11.578;2022-10-17T00:53:03;6.80;;;2.70;;
58091;SDS011;43896;48.178;11.578;2022-10-17T00:55:30;5.43;;;2.30;;
58091;SDS011;43896;48.178;11.578;2022-10-17T00:57:59;6.47;;;2.70;;
58091;SDS011;43896;48.178;11.578;2022-10-17T01:00:27;4.88;;;2.72;;
58091;SDS011;43896;48.178;11.578;2022-10-17T01:02:52;5.30;;;2.60;;
58091;SDS011;43896;48.178;11.578;2022-10-17T01:05:18;5.82;;;2.80;;
58091;SDS011;43896;48.178;11.578;2022-10-17T01:07:44;6.60;;;2.75;;
58091;SDS011;43896;48.178;11.578;2022-10-17T01:10:11;6.78;;;3.28;;
58091;SDS011;43896;48.178;11.578;2022-10-17T01:18:14;6.28;;;2.80;;
58091;SDS011;43896;48.178;11.578;2022-10-17T01:20:52;5.13;;;2.58;;
58091;SDS011;43896;48.178;11.578;2022-10-17T01:32:15;4.88;;;2.45;;
58091;SDS011;43896;48.178;11.578;2022-10-17T01:34:47;5.72;;;2.80;;
58091;SDS011;43896;48.178;11.578;2022-10-17T01:37:18;4.90;;;2.58;;
58091;SDS011;43896;48.178;11.578;2022-10-17T01:39:52;5.13;;;2.60;;
58091;SDS011;43896;48.178;11.578;2022-10-17T01:42:29;7.72;;;2.78;;
58091;SDS011;43896;48.178;11.578;2022-10-17T01:45:09;8.18;;;2.80;;
58091;SDS011;43896;48.178;11.578;2022-10-17T01:47:36;4.75;;;2.25;;
58091;SDS011;43896;48.178;11.578;2022-10-17T01:50:05;4.32;;;2.20;;
58091;SDS011;43896;48.178;11.578;2022-10-17T01:52:43;4.32;;;2.22;;
58091;SDS011;43896;48.178;11.578;2022-10-17T01:55:13;5.20;;;2.70;;
58091;SDS011;43896;48.178;11.578;2022-10-17T01:57:44;4.60;;;2.40;;
58091;SDS011;43896;48.178;11.578;2022-10-17T02:00:14;5.30;;;2.70;;
58091;SDS011;43896;48.178;11.578;2022-10-17T02:02:44;4.30;;;2.30;;
58091;SDS011;43896;48.178;11.578;2022-10-17T02:05:12;3.85;;;2.25;;
58091;SDS011;43896;48.178;11.578;2022-10-17T02:07:39;4.47;;;2.17;;
58091;SDS011;43896;48.178;11.578;2022-10-17T02:10:07;5.13;;;2.35;;
58091;SDS011;43896;48.178;11.578;2022-10-17T02:13:12;7.25;;;2.42;;
58091;SDS011;43896;48.178;11.578;2022-10-17T02:19:10;5.85;;;2.10;;
58091;SDS011;43896;48.178;11.578;2022-10-17T02:24:46;4.75;;;2.35;;
58091;SDS011;43896;48.178;11.578;2022-10-17T02:27:39;5.35;;;2.33;;
58091;SDS011;43896;48.178;11.578;2022-10-17T02:33:04;3.92;;;1.98;;
58091;SDS011;43896;48.178;11.578;2022-10-17T02:35:37;4.60;;;2.40;;
58091;SDS011;43896;48.178;11.578;2022-10-17T02:38:07;4.97;;;2.20;;
58091;SDS011;43896;48.178;11.578;2022-10-17T02:40:36;4.32;;;2.28;;
58091;SDS011;43896;48.178;11.578;2022-10-17T02:43:03;6.40;;;2.20;;
58091;SDS011;43896;48.178;11.578;2022-10-17T02:45:29;4.43;;;1.80;;
58091;SDS011;43896;48.178;11.578;2022-10-17T02:48:04;5.00;;;2.50;;
58091;SDS011;43896;48.178;11.578;2022-10-17T02:51:21;4.20;;;2.10;;
58091;SDS011;43896;48.178;11.578;2022-10-17T02:53:40;5.65;;;2.03;;
58091;SDS011;43896;48.178;11.578;2022-10-17T02:56:18;4.72;;;2.00;;
58091;SDS011;43896;48.178;11.578;2022-10-17T02:58:45;4.07;;;1.80;;
58091;SDS011;43896;48.178;11.578;2022-10-17T03:01:17;5.35;;;2.08;;
58091;SDS011;43896;48.178;11.578;2022-10-17T03:03:43;3.95;;;1.90;;
58091;SDS011;43896;48.178;11.578;2022-10-17T03:06:09;4.22;;;1.85;;
58091;SDS011;43896;48.178;11.578;2022-10-17T03:08:34;6.03;;;2.20;;
58091;SDS011;43896;48.178;11.578;2022-10-17T03:11:00;4.57;;;2.13;;
58091;SDS011;43896;48.178;11.578;2022-10-17T03:13:25;4.85;;;2.15;;
58091;SDS011;43896;48.178;11.578;2022-10-17T03:15:51;4.47;;;1.92;;
58091;SDS011;43896;48.178;11.578;2022-10-17T03:18:16;6.40;;;1.95;;
58091;SDS011;43896;48.178;11.578;2022-10-17T03:20:41;5.13;;;1.95;;
58091;SDS011;43896;48.178;11.578;2022-10-17T03:23:07;6.28;;;2.63;;
58091;SDS011;43896;48.178;11.578;2022-10-17T03:25:32;4.95;;;2.15;;
58091;SDS011;43896;48.178;11.578;2022-10-17T03:27:58;4.00;;;2.10;;
58091;SDS011;43896;48.178;11.578;2022-10-17T03:30:25;4.68;;;1.75;;
58091;SDS011;43896;48.178;11.578;2022-10-17T03:32:51;5.25;;;1.90;;
58091;SDS011;43896;48.178;11.578;2022-10-17T03:35:17;4.40;;;2.10;;
58091;SDS011;43896;48.178;11.578;2022-10-17T03:37:42;5.68;;;1.90;;
58091;SDS011;43896;48.178;11.578;2022-10-17T03:40:07;4.90;;;1.83;;
58091;SDS011;43896;48.178;11.578;2022-10-17T03:42:34;4.38;;;1.73;;
58091;SDS011;43896;48.178;11.578;2022-10-17T03:44:59;5.00;;;2.20;;
58091;SDS011;43896;48.178;11.578;2022-10-17T03:47:24;5.68;;;2.00;;
58091;SDS011;43896;48.178;11.578;2022-10-17T03:49:50;6.10;;;2.00;;
58091;SDS011;43896;48.178;11.578;2022-10-17T03:52:17;4.75;;;1.92;;
58091;SDS011;43896;48.178;11.578;2022-10-17T03:54:43;6.90;;;2.80;;
58091;SDS011;43896;48.178;11.578;2022-10-17T03:57:08;4.90;;;2.10;;
58091;SDS011;43896;48.178;11.578;2022-10-17T03:59:33;4.60;;;2.10;;
58091;SDS011;43896;48.178;11.578;2022-10-17T04:01:59;6.07;;;2.20;;
58091;SDS011;43896;48.178;11.578;2022-10-17T04:04:24;6.97;;;2.17;;
58091;SDS011;43896;48.178;11.578;2022-10-17T04:06:49;5.28;;;2.25;;
58091;SDS011;43896;48.178;11.578;2022-10-17T04:09:15;5.38;;;2.10;;
58091;SDS011;43896;48.178;11.578;2022-10-17T04:11:40;5.38;;;2.20;;
58091;SDS011;43896;48.178;11.578;2022-10-17T04:14:05;4.18;;;2.00;;
58091;SDS011;43896;48.178;11.578;2022-10-17T04:16:31;6.60;;;2.20;;
58091;SDS011;43896;48.178;11.578;2022-10-17T04:18:57;4.30;;;2.10;;
58091;SDS011;43896;48.178;11.578;2022-10-17T04:21:23;4.90;;;2.35;;
58091;SDS011;43896;48.178;11.578;2022-10-17T04:23:56;5.25;;;2.20;;
58091;SDS011;43896;48.178;11.578;2022-10-17T04:26:23;4.20;;;1.98;;
58091;SDS011;43896;48.178;11.578;2022-10-17T04:28:49;5.15;;;2.30;;
58091;SDS011;43896;48.178;11.578;2022-10-17T04:31:15;8.20;;;2.63;;
58091;SDS011;43896;48.178;11.578;2022-10-17T04:33:45;4.00;;;2.00;;
58091;SDS011;43896;48.178;11.578;2022-10-17T04:36:13;4.00;;;2.08;;
58091;SDS011;43896;48.178;11.578;2022-10-17T04:38:40;4.45;;;2.03;;
58091;SDS011;43896;48.178;11.578;2022-10-17T04:41:07;8.63;;;5.85;;
58091;SDS011;43896;48.178;11.578;2022-10-17T04:43:36;5.43;;;2.42;;
58091;SDS011;43896;48.178;11.578;2022-10-17T04:46:04;4.50;;;2.15;;
58091;SDS011;43896;48.178;11.578;2022-10-17T04:48:31;5.03;;;1.90;;
58091;SDS011;43896;48.178;11.578;2022-10-17T04:51:00;4.53;;;2.13;;
58091;SDS011;43896;48.178;11.578;2022-10-17T04:53:27;5.60;;;2.03;;
58091;SDS011;43896;48.178;11.578;2022-10-17T04:55:55;4.82;;;2.10;;
58091;SDS011;43896;48.178;11.578;2022-10-17T04:58:21;5.65;;;2.00;;
58091;SDS011;43896;48.178;11.578;2022-10-17T05:00:47;5.03;;;2.00;;
58091;SDS011;43896;48.178;11.578;2022-10-17T05:03:12;7.07;;;2.45;;
58091;SDS011;43896;48.178;11.578;2022-10-17T05:05:38;5.55;;;2.53;;
58091;SDS011;43896;48.178;11.578;2022-10-17T05:08:05;5.07;;;2.20;;
58091;SDS011;43896;48.178;11.578;2022-10-17T05:10:41;6.85;;;2.88;;
58091;SDS011;43896;48.178;11.578;2022-10-17T05:13:08;6.20;;;2.78;;
58091;SDS011;43896;48.178;11.578;2022-10-17T05:15:34;6.70;;;2.90;;
58091;SDS011;43896;48.178;11.578;2022-10-17T05:18:03;9.45;;;2.90;;
58091;SDS011;43896;48.178;11.578;2022-10-17T05:20:29;6.60;;;2.50;;
58091;SDS011;43896;48.178;11.578;2022-10-17T05:22:57;7.22;;;2.80;;
58091;SDS011;43896;48.178;11.578;2022-10-17T05:25:23;6.65;;;2.78;;
58091;SDS011;43896;48.178;11.578;2022-10-17T05:27:48;5.47;;;2.70;;
58091;SDS011;43896;48.178;11.578;2022-10-17T05:30:14;7.07;;;2.67;;
58091;SDS011;43896;48.178;11.578;2022-10-17T05:32:40;8.93;;;3.25;;
58091;SDS011;43896;48.178;11.578;2022-10-17T05:35:06;9.13;;;3.25;;
58091;SDS011;43896;48.178;11.578;2022-10-17T05:37:31;6.10;;;3.13;;
58091;SDS011;43896;48.178;11.578;2022-10-17T05:39:56;6.40;;;3.10;;
58091;SDS011;43896;48.178;11.578;2022-10-17T05:42:22;6.78;;;2.63;;
58091;SDS011;43896;48.178;11.578;2022-10-17T05:44:47;6.63;;;2.80;;
58091;SDS011;43896;48.178;11.578;2022-10-17T05:47:13;6.80;;;3.20;;
58091;SDS011;43896;48.178;11.578;2022-10-17T05:49:38;7.18;;;2.55;;
58091;SDS011;43896;48.178;11.578;2022-10-17T05:52:04;7.93;;;2.90;;
58091;SDS011;43896;48.178;11.578;2022-10-17T05:54:30;7.35;;;2.90;;
58091;SDS011;43896;48.178;11.578;2022-10-17T05:57:02;7.43;;;3.10;;
58091;SDS011;43896;48.178;11.578;2022-10-17T05:59:32;7.72;;;3.17;;
58091;SDS011;43896;48.178;11.578;2022-10-17T06:01:57;8.38;;;3.40;;
58091;SDS011;43896;48.178;11.578;2022-10-17T06:04:23;7.05;;;3.30;;
58091;SDS011;43896;48.178;11.578;2022-10-17T06:06:48;6.10;;;3.28;;
58091;SDS011;43896;48.178;11.578;2022-10-17T06:09:14;7.88;;;2.97;;
58091;SDS011;43896;48.178;11.578;2022-10-17T06:11:39;7.38;;;3.13;;
58091;SDS011;43896;48.178;11.578;2022-10-17T06:14:05;7.45;;;3.33;;
58091;SDS011;43896;48.178;11.578;2022-10-17T06:16:30;6.70;;;3.10;;
58091;SDS011;43896;48.178;11.578;2022-10-17T06:18:55;5.68;;;3.00;;
58091;SDS011;43896;48.178;11.578;2022-10-17T06:21:22;6.20;;;2.80;;
58091;SDS011;43896;48.178;11.578;2022-10-17T06:23:48;8.15;;;2.92;;
58091;SDS011;43896;48.178;11.578;2022-10-17T06:26:14;16.70;;;7.57;;
58091;SDS011;43896;48.178;11.578;2022-10-17T06:28:39;8.73;;;3.78;;
58091;SDS011;43896;48.178;11.578;2022-10-17T06:31:09;9.88;;;5.00;;
58091;SDS011;43896;48.178;11.578;2022-10-17T06:33:36;6.75;;;3.50;;
58091;SDS011;43896;48.178;11.578;2022-10-17T06:36:02;8.85;;;3.47;;
58091;SDS011;43896;48.178;11.578;2022-10-17T06:38:28;8.05;;;3.58;;
58091;SDS011;43896;48.178;11.578;2022-10-17T06:40:54;7.03;;;3.38;;
58091;SDS011;43896;48.178;11.578;2022-10-17T06:46:34;5.95;;;2.95;;
58091;SDS011;43896;48.178;11.578;2022-10-17T06:49:00;9.13;;;3.10;;
58091;SDS011;43896;48.178;11.578;2022-10-17T06:51:26;8.02;;;3.08;;
58091;SDS011;43896;48.178;11.578;2022-10-17T06:53:51;8.15;;;3.10;;
58091;SDS011;43896;48.178;11.578;2022-10-17T06:56:16;7.85;;;3.13;;
58091;SDS011;43896;48.178;11.578;2022-10-17T06:58:43;11.43;;;3.45;;
58091;SDS011;43896;48.178;11.578;2022-10-17T07:01:11;11.73;;;3.38;;
58091;SDS011;43896;48.178;11.578;2022-10-17T07:03:37;9.48;;;3.45;;
58091;SDS011;43896;48.178;11.578;2022-10-17T07:06:04;8.88;;;3.35;;
58091;SDS011;43896;48.178;11.578;2022-10-17T07:08:29;7.80;;;3.10;;
58091;SDS011;43896;48.178;11.578;2022-10-17T07:10:55;7.15;;;3.47;;
58091;SDS011;43896;48.178;11.578;2022-10-17T07:13:21;7.22;;;3.10;;
58091;SDS011;43896;48.178;11.578;2022-10-17T07:15:47;6.90;;;3.17;;
58091;SDS011;43896;48.178;11.578;2022-10-17T07:18:12;7.63;;;3.40;;
58091;SDS011;43896;48.178;11.578;2022-10-17T07:20:37;6.47;;;3.35;;
58091;SDS011;43896;48.178;11.578;2022-10-17T07:23:04;7.78;;;3.20;;
58091;SDS011;43896;48.178;11.578;2022-10-17T07:25:29;8.23;;;3.28;;
58091;SDS011;43896;48.178;11.578;2022-10-17T07:27:55;6.32;;;3.42;;
58091;SDS011;43896;48.178;11.578;2022-10-17T07:30:20;7.22;;;3.63;;
58091;SDS011;43896;48.178;11.578;2022-10-17T07:32:46;6.20;;;3.38;;
58091;SDS011;43896;48.178;11.578;2022-10-17T07:35:12;7.25;;;3.65;;
58091;SDS011;43896;48.178;11.578;2022-10-17T07:37:38;9.15;;;3.60;;
58091;SDS011;43896;48.178;11.578;2022-10-17T07:40:05;7.78;;;3.30;;
58091;SDS011;43896;48.178;11.578;2022-10-17T07:42:32;9.93;;;6.35;;
58091;SDS011;43896;48.178;11.578;2022-10-17T07:44:59;9.68;;;5.38;;
58091;SDS011;43896;48.178;11.578;2022-10-17T07:47:25;7.72;;;3.97;;
58091;SDS011;43896;48.178;11.578;2022-10-17T07:49:50;6.90;;;3.97;;
58091;SDS011;43896;48.178;11.578;2022-10-17T07:52:15;9.57;;;3.45;;
58091;SDS011;43896;48.178;11.578;2022-10-17T07:54:41;6.88;;;3.58;;
58091;SDS011;43896;48.178;11.578;2022-10-17T07:57:07;6.13;;;3.40;;
58091;SDS011;43896;48.178;11.578;2022-10-17T07:59:33;7.95;;;3.15;;
58091;SDS011;43896;48.178;11.578;2022-10-17T08:02:00;7.70;;;3.45;;
58091;SDS011;43896;48.178;11.578;2022-10-17T08:04:26;6.38;;;3.10;;
58091;SDS011;43896;48.178;11.578;2022-10-17T08:06:52;6.22;;;3.25;;
58091;SDS011;43896;48.178;11.578;2022-10-17T08:09:17;7.03;;;3.22;;
58091;SDS011;43896;48.178;11.578;2022-10-17T08:11:43;6.38;;;3.10;;
58091;SDS011;43896;48.178;11.578;2022-10-17T08:14:09;6.63;;;3.00;;
58091;SDS011;43896;48.178;11.578;2022-10-17T08:16:35;6.45;;;3.10;;
58091;SDS011;43896;48.178;11.578;2022-10-17T08:19:00;7.25;;;2.78;;
58091;SDS011;43896;48.178;11.578;2022-10-17T08:21:25;7.97;;;3.00;;
58091;SDS011;43896;48.178;11.578;2022-10-17T08:23:51;6.28;;;2.70;;
58091;SDS011;43896;48.178;11.578;2022-10-17T08:26:17;6.15;;;2.83;;
58091;SDS011;43896;48.178;11.578;2022-10-17T08:28:44;6.82;;;2.70;;
58091;SDS011;43896;48.178;11.578;2022-10-17T08:31:14;5.50;;;2.60;;
58091;SDS011;43896;48.178;11.578;2022-10-17T08:33:42;8.70;;;2.45;;
58091;SDS011;43896;48.178;11.578;2022-10-17T08:36:08;7.90;;;2.85;;
58091;SDS011;43896;48.178;11.578;2022-10-17T08:38:34;5.47;;;2.80;;
58091;SDS011;43896;48.178;11.578;2022-10-17T08:41:02;7.60;;;2.88;;
58091;SDS011;43896;48.178;11.578;2022-10-17T08:46:28;5.05;;;2.20;;
58091;SDS011;43896;48.178;11.578;2022-10-17T08:48:56;5.05;;;2.58;;
58091;SDS011;43896;48.178;11.578;2022-10-17T08:51:25;7.07;;;2.67;;
58091;SDS011;43896;48.178;11.578;2022-10-17T08:54:01;5.53;;;2.40;;
58091;SDS011;43896;48.178;11.578;2022-10-17T08:56:44;5.60;;;2.47;;
58091;SDS011;43896;48.178;11.578;2022-10-17T08:59:15;5.60;;;2.60;;
58091;SDS011;43896;48.178;11.578;2022-10-17T09:01:50;7.22;;;2.38;;
58091;SDS011;43896;48.178;11.578;2022-10-17T09:07:15;5.75;;;2.25;;
58091;SDS011;43896;48.178;11.578;2022-10-17T09:09:49;5.82;;;2.42;;
58091;SDS011;43896;48.178;11.578;2022-10-17T09:12:24;6.28;;;2.88;;
58091;SDS011;43896;48.178;11.578;2022-10-17T09:15:09;7.75;;;2.60;;
58091;SDS011;43896;48.178;11.578;2022-10-17T09:17:50;7.47;;;3.00;;
58091;SDS011;43896;48.178;11.578;2022-10-17T09:20:21;5.70;;;2.55;;
58091;SDS011;43896;48.178;11.578;2022-10-17T09:22:56;6.63;;;2.50;;
58091;SDS011;43896;48.178;11.578;2022-10-17T09:25:25;5.75;;;2.50;;
58091;SDS011;43896;48.178;11.578;2022-10-17T09:27:53;7.13;;;2.75;;
58091;SDS011;43896;48.178;11.578;2022-10-17T09:35:38;5.50;;;2.42;;
58091;SDS011;43896;48.178;11.578;2022-10-17T09:38:06;6.22;;;2.70;;
58091;SDS011;43896;48.178;11.578;2022-10-17T09:40:38;5.15;;;2.45;;
58091;SDS011;43896;48.178;11.578;2022-10-17T09:43:04;5.13;;;2.50;;
58091;SDS011;43896;48.178;11.578;2022-10-17T09:45:32;5.85;;;2.80;;
58091;SDS011;43896;48.178;11.578;2022-10-17T09:48:14;6.13;;;2.40;;
58091;SDS011;43896;48.178;11.578;2022-10-17T09:50:48;5.18;;;2.55;;
58091;SDS011;43896;48.178;11.578;2022-10-17T09:53:17;6.00;;;2.70;;
58091;SDS011;43896;48.178;11.578;2022-10-17T09:55:58;4.75;;;2.50;;
58091;SDS011;43896;48.178;11.578;2022-10-17T09:58:39;5.68;;;2.10;;
58091;SDS011;43896;48.178;11.578;2022-10-17T10:01:20;4.78;;;2.45;;
58091;SDS011;43896;48.178;11.578;2022-10-17T10:04:12;6.38;;;2.47;;
58091;SDS011;43896;48.178;11.578;2022-10-17T10:06:40;5.90;;;2.22;;
58091;SDS011;43896;48.178;11.578;2022-10-17T10:09:24;6.32;;;2.28;;
58091;SDS011;43896;48.178;11.578;2022-10-17T10:11:56;4.70;;;2.25;;
58091;SDS011;43896;48.178;11.578;2022-10-17T10:14:28;5.50;;;2.47;;
58091;SDS011;43896;48.178;11.578;2022-10-17T10:16:57;6.68;;;2.15;;
58091;SDS011;43896;48.178;11.578;2022-10-17T10:22:00;6.40;;;2.60;;
58091;SDS011;43896;48.178;11.578;2022-10-17T10:24:30;5.85;;;2.47;;
58091;SDS011;43896;48.178;11.578;2022-10-17T10:26:57;4.93;;;2.00;;
58091;SDS011;43896;48.178;11.578;2022-10-17T10:31:58;4.93;;;2.15;;
58091;SDS011;43896;48.178;11.578;2022-10-17T10:34:33;4.57;;;2.00;;
58091;SDS011;43896;48.178;11.578;2022-10-17T10:37:01;4.97;;;1.95;;
58091;SDS011;43896;48.178;11.578;2022-10-17T10:39:33;3.93;;;2.10;;
58091;SDS011;43896;48.178;11.578;2022-10-17T10:42:05;4.68;;;2.05;;
58091;SDS011;43896;48.178;11.578;2022-10-17T10:44:41;4.68;;;2.42;;
58091;SDS011;43896;48.178;11.578;2022-10-17T10:47:07;4.35;;;2.15;;
58091;SDS011;43896;48.178;11.578;2022-10-17T10:49:38;3.92;;;2.05;;
58091;SDS011;43896;48.178;11.578;2022-10-17T10:52:03;5.88;;;1.85;;
58091;SDS011;43896;48.178;11.578;2022-10-17T10:54:33;5.97;;;1.80;;
58091;SDS011;43896;48.178;11.578;2022-10-17T10:57:03;6.63;;;1.90;;
58091;SDS011;43896;48.178;11.578;2022-10-17T10:59:34;4.57;;;1.95;;
58091;SDS011;43896;48.178;11.578;2022-10-17T11:10:14;5.10;;;2.35;;
58091;SDS011;43896;48.178;11.578;2022-10-17T11:15:47;4.97;;;2.33;;
58091;SDS011;43896;48.178;11.578;2022-10-17T11:18:25;9.05;;;2.35;;
58091;SDS011;43896;48.178;11.578;2022-10-17T11:21:40;4.45;;;2.30;;
58091;SDS011;43896;48.178;11.578;2022-10-17T11:23:55;8.55;;;2.30;;
58091;SDS011;43896;48.178;11.578;2022-10-17T11:26:28;3.97;;;1.83;;
58091;SDS011;43896;48.178;11.578;2022-10-17T11:28:57;4.15;;;2.00;;
58091;SDS011;43896;48.178;11.578;2022-10-17T11:31:29;5.15;;;2.10;;
58091;SDS011;43896;48.178;11.578;2022-10-17T11:36:27;4.50;;;2.10;;
58091;SDS011;43896;48.178;11.578;2022-10-17T11:39:01;4.25;;;2.50;;
58091;SDS011;43896;48.178;11.578;2022-10-17T11:44:10;6.93;;;2.00;;
58091;SDS011;43896;48.178;11.578;2022-10-17T11:46:36;4.65;;;2.60;;
58091;SDS011;43896;48.178;11.578;2022-10-17T11:49:15;5.65;;;2.30;;
58091;SDS011;43896;48.178;11.578;2022-10-17T11:51:49;4.30;;;2.20;;
58091;SDS011;43896;48.178;11.578;2022-10-17T11:54:49;4.45;;;2.20;;
58091;SDS011;43896;48.178;11.578;2022-10-17T12:00:17;3.63;;;2.03;;
58091;SDS011;43896;48.178;11.578;2022-10-17T12:06:07;3.92;;;1.95;;
58091;SDS011;43896;48.178;11.578;2022-10-17T12:14:33;4.25;;;1.70;;
58091;SDS011;43896;48.178;11.578;2022-10-17T12:19:50;3.95;;;1.70;;
58091;SDS011;43896;48.178;11.578;2022-10-17T12:24:44;3.43;;;1.83;;
58091;SDS011;43896;48.178;11.578;2022-10-17T12:27:22;5.40;;;2.10;;
58091;SDS011;43896;48.178;11.578;2022-10-17T12:30:06;3.75;;;1.80;;
58091;SDS011;43896;48.178;11.578;2022-10-17T12:35:48;3.67;;;1.70;;
58091;SDS011;43896;48.178;11.578;2022-10-17T12:38:23;3.55;;;1.73;;
58091;SDS011;43896;48.178;11.578;2022-10-17T12:40:50;4.15;;;1.80;;
58091;SDS011;43896;48.178;11.578;2022-10-17T12:45:52;3.25;;;1.67;;
58091;SDS011;43896;48.178;11.578;2022-10-17T12:53:49;3.83;;;1.58;;
58091;SDS011;43896;48.178;11.578;2022-10-17T12:56:38;3.20;;;1.63;;
58091;SDS011;43896;48.178;11.578;2022-10-17T12:59:12;3.80;;;1.38;;
58091;SDS011;43896;48.178;11.578;2022-10-17T13:01:42;3.83;;;1.60;;
58091;SDS011;43896;48.178;11.578;2022-10-17T13:04:10;3.15;;;1.50;;
58091;SDS011;43896;48.178;11.578;2022-10-17T13:06:37;3.95;;;1.70;;
58091;SDS011;43896;48.178;11.578;2022-10-17T13:11:56;3.33;;;1.35;;
58091;SDS011;43896;48.178;11.578;2022-10-17T13:14:24;4.30;;;1.58;;
58091;SDS011;43896;48.178;11.578;2022-10-17T13:16:55;4.85;;;1.67;;
58091;SDS011;43896;48.178;11.578;2022-10-17T13:19:28;3.75;;;1.60;;
58091;SDS011;43896;48.178;11.578;2022-10-17T13:22:16;3.53;;;1.73;;
58091;SDS011;43896;48.178;11.578;2022-10-17T13:24:46;3.35;;;1.58;;
58091;SDS011;43896;48.178;11.578;2022-10-17T13:27:26;3.80;;;1.70;;
58091;SDS011;43896;48.178;11.578;2022-10-17T13:29:57;4.22;;;1.50;;
58091;SDS011;43896;48.178;11.578;2022-10-17T13:32:25;2.38;;;1.30;;
58091;SDS011;43896;48.178;11.578;2022-10-17T13:35:09;2.78;;;1.50;;
58091;SDS011;43896;48.178;11.578;2022-10-17T13:37:36;6.80;;;2.00;;
58091;SDS011;43896;48.178;11.578;2022-10-17T13:40:04;4.50;;;1.70;;
58091;SDS011;43896;48.178;11.578;2022-10-17T13:42:35;3.45;;;1.50;;
58091;SDS011;43896;48.178;11.578;2022-10-17T13:45:03;3.92;;;1.73;;
58091;SDS011;43896;48.178;11.578;2022-10-17T13:47:37;4.53;;;2.20;;
58091;SDS011;43896;48.178;11.578;2022-10-17T13:50:03;5.78;;;1.63;;
58091;SDS011;43896;48.178;11.578;2022-10-17T13:52:29;3.58;;;1.80;;
58091;SDS011;43896;48.178;11.578;2022-10-17T13:54:55;6.90;;;2.53;;
58091;SDS011;43896;48.178;11.578;2022-10-17T13:57:32;3.35;;;1.65;;
58091;SDS011;43896;48.178;11.578;2022-10-17T13:59:59;4.05;;;1.75;;
58091;SDS011;43896;48.178;11.578;2022-10-17T14:02:30;3.95;;;2.17;;
58091;SDS011;43896;48.178;11.578;2022-10-17T14:10:04;7.45;;;2.40;;
58091;SDS011;43896;48.178;11.578;2022-10-17T14:12:41;3.63;;;1.83;;
58091;SDS011;43896;48.178;11.578;2022-10-17T14:15:08;3.72;;;1.65;;
58091;SDS011;43896;48.178;11.578;2022-10-17T14:17:38;3.78;;;1.63;;
58091;SDS011;43896;48.178;11.578;2022-10-17T14:20:04;4.55;;;1.60;;
58091;SDS011;43896;48.178;11.578;2022-10-17T14:22:35;3.50;;;1.70;;
58091;SDS011;43896;48.178;11.578;2022-10-17T14:25:01;3.15;;;1.40;;
58091;SDS011;43896;48.178;11.578;2022-10-17T14:27:28;3.97;;;1.20;;
58091;SDS011;43896;48.178;11.578;2022-10-17T14:30:52;2.83;;;1.40;;
58091;SDS011;43896;48.178;11.578;2022-10-17T14:32:57;2.80;;;1.50;;
58091;SDS011;43896;48.178;11.578;2022-10-17T14:35:25;4.38;;;1.70;;
58091;SDS011;43896;48.178;11.578;2022-10-17T14:37:51;3.72;;;1.80;;
58091;SDS011;43896;48.178;11.578;2022-10-17T14:40:24;5.05;;;1.90;;
58091;SDS011;43896;48.178;11.578;2022-10-17T14:42:51;7.00;;;2.30;;
58091;SDS011;43896;48.178;11.578;2022-10-17T14:48:02;6.78;;;3.38;;
58091;SDS011;43896;48.178;11.578;2022-10-17T14:50:33;6.68;;;2.92;;
58091;SDS011;43896;48.178;11.578;2022-10-17T14:53:04;5.55;;;2.35;;
58091;SDS011;43896;48.178;11.578;2022-10-17T14:55:30;5.65;;;2.30;;
58091;SDS011;43896;48.178;11.578;2022-10-17T14:57:57;5.47;;;2.70;;
58091;SDS011;43896;48.178;11.578;2022-10-17T15:00:23;5.22;;;2.42;;
58091;SDS011;43896;48.178;11.578;2022-10-17T15:02:50;8.25;;;2.47;;
58091;SDS011;43896;48.178;11.578;2022-10-17T15:05:17;4.20;;;2.17;;
58091;SDS011;43896;48.178;11.578;2022-10-17T15:07:44;7.45;;;2.60;;
58091;SDS011;43896;48.178;11.578;2022-10-17T15:12:59;6.00;;;3.85;;
58091;SDS011;43896;48.178;11.578;2022-10-17T15:15:29;6.13;;;3.22;;
58091;SDS011;43896;48.178;11.578;2022-10-17T15:17:55;9.20;;;3.30;;
58091;SDS011;43896;48.178;11.578;2022-10-17T15:20:21;5.63;;;2.80;;
58091;SDS011;43896;48.178;11.578;2022-10-17T15:22:51;6.53;;;2.30;;
58091;SDS011;43896;48.178;11.578;2022-10-17T15:25:17;6.03;;;2.17;;
58091;SDS011;43896;48.178;11.578;2022-10-17T15:27:46;3.63;;;2.05;;
58091;SDS011;43896;48.178;11.578;2022-10-17T15:30:22;4.55;;;1.70;;
58091;SDS011;43896;48.178;11.578;2022-10-17T15:32:47;4.00;;;1.90;;
58091;SDS011;43896;48.178;11.578;2022-10-17T15:35:13;7.03;;;1.90;;
58091;SDS011;43896;48.178;11.578;2022-10-17T15:37:38;5.68;;;1.88;;
58091;SDS011;43896;48.178;11.578;2022-10-17T15:40:04;5.65;;;1.90;;
58091;SDS011;43896;48.178;11.578;2022-10-17T15:42:30;4.25;;;1.60;;
58091;SDS011;43896;48.178;11.578;2022-10-17T15:44:58;3.85;;;1.88;;
58091;SDS011;43896;48.178;11.578;2022-10-17T15:47:28;3.75;;;1.70;;
58091;SDS011;43896;48.178;11.578;2022-10-17T15:50:10;4.22;;;2.40;;
58091;SDS011;43896;48.178;11.578;2022-10-17T15:52:44;4.55;;;2.45;;
58091;SDS011;43896;48.178;11.578;2022-10-17T15:55:21;4.65;;;1.80;;
58091;SDS011;43896;48.178;11.578;2022-10-17T16:05:59;5.60;;;1.80;;
58091;SDS011;43896;48.178;11.578;2022-10-17T16:08:26;3.70;;;1.80;;
58091;SDS011;43896;48.178;11.578;2022-10-17T16:10:57;4.55;;;2.03;;
58091;SDS011;43896;48.178;11.578;2022-10-17T16:20:21;4.22;;;1.98;;
58091;SDS011;43896;48.178;11.578;2022-10-17T16:22:56;5.28;;;2.10;;
58091;SDS011;43896;48.178;11.578;2022-10-17T16:25:35;5.25;;;2.15;;
58091;SDS011;43896;48.178;11.578;2022-10-17T16:28:53;5.05;;;2.40;;
58091;SDS011;43896;48.178;11.578;2022-10-17T16:45:07;4.63;;;2.17;;
58091;SDS011;43896;48.178;11.578;2022-10-17T16:47:42;7.55;;;2.90;;
58091;SDS011;43896;48.178;11.578;2022-10-17T16:50:10;4.65;;;2.40;;
58091;SDS011;43896;48.178;11.578;2022-10-17T16:52:38;9.20;;;2.53;;
58091;SDS011;43896;48.178;11.578;2022-10-17T16:55:13;5.40;;;2.85;;
58091;SDS011;43896;48.178;11.578;2022-10-17T16:57:42;7.50;;;2.60;;